createdAt,value
2023-05-24T00:00:46.812Z,2.45
2023-05-24T00:03:15.609Z,2.30
2023-05-24T00:05:42.925Z,1.70
2023-05-24T00:08:09.593Z,2.15
2023-05-24T00:10:37.837Z,2.08
2023-05-24T00:13:06.181Z,2.00
2023-05-24T00:15:34.266Z,2.10
2023-05-24T00:18:01.079Z,2.30
2023-05-24T00:20:28.245Z,2.00
2023-05-24T00:22:55.182Z,1.60
2023-05-24T00:25:22.000Z,1.60
2023-05-24T00:27:48.691Z,1.60
2023-05-24T00:30:17.411Z,1.95
2023-05-24T00:32:45.565Z,1.65
2023-05-24T00:35:14.072Z,1.85
2023-05-24T00:37:45.862Z,1.85
2023-05-24T00:40:14.223Z,1.95
2023-05-24T00:42:41.990Z,2.03
2023-05-24T00:45:09.867Z,1.77
2023-05-24T00:47:37.366Z,1.70
2023-05-24T00:50:04.749Z,1.60
2023-05-24T00:52:32.544Z,2.05
2023-05-24T00:54:59.786Z,1.83
2023-05-24T00:57:27.446Z,1.60
2023-05-24T00:59:56.266Z,1.60
2023-05-24T01:02:25.879Z,1.75
2023-05-24T01:04:53.547Z,2.50
2023-05-24T01:08:00.385Z,1.83
2023-05-24T01:10:47.273Z,1.83
2023-05-24T01:13:50.117Z,1.90
2023-05-24T01:16:27.568Z,2.40
2023-05-24T01:19:00.814Z,2.17
2023-05-24T01:21:38.746Z,1.90
2023-05-24T01:24:36.114Z,2.42
2023-05-24T01:27:12.536Z,2.40
2023-05-24T01:29:39.722Z,2.30
2023-05-24T01:32:07.326Z,2.45
2023-05-24T01:34:34.008Z,2.00
2023-05-24T01:37:00.745Z,1.80
2023-05-24T01:39:30.474Z,2.03
2023-05-24T01:42:25.488Z,2.10
2023-05-24T01:45:10.930Z,1.85
2023-05-24T01:47:55.781Z,1.80
2023-05-24T01:50:31.650Z,2.25
2023-05-24T01:53:06.686Z,2.10
2023-05-24T01:55:34.862Z,1.90
2023-05-24T01:58:04.889Z,1.73
2023-05-24T02:00:33.025Z,1.83
2023-05-24T02:03:00.083Z,2.20
2023-05-24T02:05:26.871Z,2.13
2023-05-24T02:07:54.126Z,1.55
2023-05-24T02:10:20.921Z,1.90
2023-05-24T02:12:47.708Z,2.00
2023-05-24T02:15:15.138Z,1.67
2023-05-24T02:17:43.393Z,1.40
2023-05-24T02:20:11.141Z,1.63
2023-05-24T02:22:39.900Z,1.75
2023-05-24T02:25:08.596Z,1.60
2023-05-24T02:27:37.582Z,1.67
2023-05-24T02:30:07.322Z,2.00
2023-05-24T02:32:35.203Z,1.75
2023-05-24T02:35:02.319Z,1.70
2023-05-24T02:37:29.427Z,2.00
2023-05-24T02:39:56.486Z,1.52
2023-05-24T02:42:23.309Z,1.80
2023-05-24T02:44:52.931Z,1.60
2023-05-24T02:47:20.019Z,1.67
2023-05-24T02:49:46.875Z,1.63
2023-05-24T02:52:14.729Z,1.40
2023-05-24T02:54:41.392Z,1.38
2023-05-24T02:57:08.485Z,1.45
2023-05-24T02:59:36.644Z,1.70
2023-05-24T03:02:04.150Z,1.55
2023-05-24T03:04:31.291Z,1.60
2023-05-24T03:06:58.749Z,1.67
2023-05-24T03:09:26.539Z,1.90
2023-05-24T03:11:54.915Z,1.83
2023-05-24T03:14:24.250Z,1.80
2023-05-24T03:16:52.364Z,1.75
2023-05-24T03:19:19.355Z,1.35
2023-05-24T03:21:46.520Z,1.73
2023-05-24T03:24:15.429Z,1.77
2023-05-24T03:26:42.680Z,2.15
2023-05-24T03:29:09.812Z,1.33
2023-05-24T03:31:37.000Z,1.65
2023-05-24T03:34:04.793Z,1.73
2023-05-24T03:36:34.827Z,1.60
2023-05-24T03:39:04.725Z,1.88
2023-05-24T03:41:31.675Z,1.90
2023-05-24T03:43:58.895Z,1.63
2023-05-24T03:46:26.561Z,1.90
2023-05-24T03:48:53.647Z,2.22
2023-05-24T03:51:21.525Z,1.73
2023-05-24T03:53:50.534Z,2.42
2023-05-24T03:56:19.758Z,2.00
2023-05-24T03:58:47.245Z,1.95
2023-05-24T04:01:25.498Z,2.05
2023-05-24T04:03:59.770Z,2.10
2023-05-24T04:06:29.834Z,1.90
2023-05-24T04:08:58.127Z,1.88
2023-05-24T04:11:29.010Z,1.67
2023-05-24T04:13:57.765Z,2.03
2023-05-24T04:16:26.833Z,1.67
2023-05-24T04:18:55.365Z,1.75
2023-05-24T04:21:23.614Z,2.00
2023-05-24T04:23:51.567Z,1.90
2023-05-24T04:26:18.972Z,2.20
2023-05-24T04:28:46.934Z,2.08
2023-05-24T04:31:13.942Z,2.47
2023-05-24T04:33:41.127Z,2.13
2023-05-24T04:36:08.468Z,1.88
2023-05-24T04:38:36.331Z,3.30
2023-05-24T04:41:03.300Z,2.92
2023-05-24T04:43:30.071Z,2.53
2023-05-24T04:45:56.796Z,2.63
2023-05-24T04:48:26.251Z,2.50
2023-05-24T04:50:53.839Z,3.13
2023-05-24T04:53:21.337Z,2.63
2023-05-24T04:55:50.256Z,2.58
2023-05-24T04:58:17.451Z,2.65
2023-05-24T05:00:44.863Z,2.75
2023-05-24T05:03:11.789Z,2.83
2023-05-24T05:05:40.078Z,2.83
2023-05-24T05:08:06.948Z,2.45
2023-05-24T05:10:35.775Z,2.90
2023-05-24T05:13:03.038Z,2.45
2023-05-24T05:15:29.899Z,3.42
2023-05-24T05:17:57.383Z,3.10
2023-05-24T05:20:25.751Z,2.75
2023-05-24T05:22:52.879Z,3.00
2023-05-24T05:25:20.130Z,3.08
2023-05-24T05:27:46.813Z,2.80
2023-05-24T05:30:15.065Z,2.65
2023-05-24T05:32:42.272Z,2.17
2023-05-24T05:35:09.895Z,2.50
2023-05-24T05:37:36.844Z,2.53
2023-05-24T05:40:04.924Z,2.50
2023-05-24T05:42:33.609Z,2.33
2023-05-24T05:45:01.687Z,2.35
2023-05-24T05:47:30.369Z,2.25
2023-05-24T05:49:57.220Z,2.58
2023-05-24T05:52:24.153Z,2.50
2023-05-24T05:54:51.617Z,2.28
2023-05-24T05:57:24.103Z,2.00
2023-05-24T05:59:51.163Z,2.27
2023-05-24T06:02:24.560Z,2.10
2023-05-24T06:04:54.778Z,2.40
2023-05-24T06:07:23.424Z,1.92
2023-05-24T06:09:50.321Z,2.30
2023-05-24T06:12:17.003Z,2.00
2023-05-24T06:14:46.374Z,2.20
2023-05-24T06:17:13.706Z,1.92
2023-05-24T06:19:40.405Z,2.17
2023-05-24T06:22:07.104Z,2.72
2023-05-24T06:24:34.914Z,2.55
2023-05-24T06:27:04.594Z,2.05
2023-05-24T06:29:32.232Z,2.78
2023-05-24T06:32:04.501Z,2.03
2023-05-24T06:34:36.209Z,2.20
2023-05-24T06:37:03.006Z,2.22
2023-05-24T06:39:31.683Z,2.88
2023-05-24T06:41:58.418Z,2.85
2023-05-24T06:44:34.552Z,2.50
2023-05-24T06:47:03.154Z,2.80
2023-05-24T06:49:29.870Z,3.35
2023-05-24T06:51:58.071Z,2.30
2023-05-24T06:54:26.838Z,2.72
2023-05-24T06:56:54.924Z,2.85
2023-05-24T06:59:24.328Z,3.28
2023-05-24T07:01:57.926Z,3.20
2023-05-24T07:04:28.489Z,3.13
2023-05-24T07:06:59.056Z,2.67
2023-05-24T07:09:30.371Z,2.70
2023-05-24T07:12:02.236Z,2.85
2023-05-24T07:14:33.728Z,2.50
2023-05-24T07:17:03.178Z,2.10
2023-05-24T07:19:35.555Z,2.95
2023-05-24T07:22:05.028Z,3.13
2023-05-24T07:24:33.766Z,2.70
2023-05-24T07:27:02.239Z,2.53
2023-05-24T07:29:31.026Z,2.50
2023-05-24T07:31:59.348Z,2.90
2023-05-24T07:34:28.909Z,4.00
2023-05-24T07:36:59.432Z,3.65
2023-05-24T07:39:30.880Z,3.25
2023-05-24T07:41:58.576Z,2.70
2023-05-24T07:44:25.336Z,2.63
2023-05-24T07:46:54.129Z,2.92
2023-05-24T07:49:23.303Z,2.78
2023-05-24T07:51:51.840Z,3.50
2023-05-24T07:54:19.293Z,3.28
2023-05-24T07:56:46.018Z,2.63
2023-05-24T07:59:14.362Z,2.80
2023-05-24T08:01:43.153Z,2.72
2023-05-24T08:04:10.445Z,2.72
2023-05-24T08:06:38.245Z,3.03
2023-05-24T08:09:06.474Z,2.83
2023-05-24T08:11:33.352Z,3.80
2023-05-24T08:14:00.050Z,2.65
2023-05-24T08:16:29.590Z,2.80
2023-05-24T08:18:56.834Z,2.25
2023-05-24T08:21:24.261Z,2.15
2023-05-24T08:23:52.414Z,2.75
2023-05-24T08:26:21.622Z,2.25
2023-05-24T08:28:49.844Z,2.30
2023-05-24T08:31:17.565Z,2.63
2023-05-24T08:33:44.688Z,2.20
2023-05-24T08:36:11.798Z,2.22
2023-05-24T08:38:38.561Z,2.78
2023-05-24T08:41:07.736Z,2.00
2023-05-24T08:43:35.325Z,2.42
2023-05-24T08:46:04.426Z,1.70
2023-05-24T08:48:32.115Z,1.50
2023-05-24T08:50:59.529Z,2.00
2023-05-24T08:53:27.466Z,1.60
2023-05-24T08:55:55.913Z,1.42
2023-05-24T08:58:23.373Z,1.15
2023-05-24T09:00:50.540Z,1.52
2023-05-24T09:03:17.871Z,1.60
2023-05-24T09:05:45.497Z,1.63
2023-05-24T09:08:18.270Z,1.30
2023-05-24T09:13:19.894Z,1.20
2023-05-24T09:15:47.140Z,1.40
2023-05-24T09:18:14.102Z,1.42
2023-05-24T09:20:41.129Z,1.40
2023-05-24T09:23:08.963Z,1.25
2023-05-24T09:25:35.995Z,1.17
2023-05-24T09:28:08.570Z,1.40
2023-05-24T09:30:37.182Z,1.13
2023-05-24T09:33:05.618Z,1.10
2023-05-24T09:35:33.416Z,1.50
2023-05-24T09:38:06.416Z,1.35
2023-05-24T09:43:04.056Z,1.20
2023-05-24T09:45:39.940Z,1.70
2023-05-24T09:48:11.682Z,1.25
2023-05-24T09:50:40.568Z,1.20
2023-05-24T09:53:09.519Z,1.70
2023-05-24T09:55:38.816Z,1.20
2023-05-24T09:58:09.586Z,1.30
2023-05-24T10:00:42.145Z,1.40
2023-05-24T10:03:15.635Z,1.13
2023-05-24T10:05:48.447Z,1.25
2023-05-24T10:08:16.290Z,1.58
2023-05-24T10:10:44.104Z,1.20
2023-05-24T10:13:11.886Z,1.60
2023-05-24T10:15:39.163Z,1.35
2023-05-24T10:18:11.375Z,1.50
2023-05-24T10:20:41.627Z,1.58
2023-05-24T10:23:10.335Z,1.70
2023-05-24T10:25:42.139Z,1.50
2023-05-24T10:28:14.153Z,1.10
2023-05-24T10:30:54.699Z,1.48
2023-05-24T10:33:24.420Z,1.17
2023-05-24T10:35:54.300Z,1.42
2023-05-24T10:38:28.255Z,1.30
2023-05-24T10:40:55.439Z,1.58
2023-05-24T10:43:22.761Z,1.30
2023-05-24T10:45:51.676Z,1.00
2023-05-24T10:48:25.810Z,1.80
2023-05-24T10:50:54.780Z,2.88
2023-05-24T10:53:28.363Z,2.90
2023-05-24T10:56:00.367Z,2.60
2023-05-24T10:58:34.527Z,3.63
2023-05-24T11:01:05.439Z,3.05
2023-05-24T11:03:37.491Z,3.30
2023-05-24T11:06:07.086Z,4.47
2023-05-24T11:08:36.077Z,3.85
2023-05-24T11:13:43.700Z,4.50
2023-05-24T11:16:35.517Z,3.78
2023-05-24T11:19:17.927Z,4.80
2023-05-24T11:21:50.052Z,3.70
2023-05-24T11:24:19.212Z,4.30
2023-05-24T11:26:47.660Z,4.38
2023-05-24T11:29:23.070Z,4.10
2023-05-24T11:31:58.719Z,4.32
2023-05-24T11:34:28.224Z,4.07
2023-05-24T11:36:55.745Z,3.83
2023-05-24T11:39:23.958Z,4.20
2023-05-24T11:41:50.863Z,4.07
2023-05-24T11:44:22.333Z,3.50
2023-05-24T11:46:49.102Z,3.47
2023-05-24T11:49:17.054Z,3.53
2023-05-24T11:51:44.035Z,4.20
2023-05-24T11:54:11.868Z,3.78
2023-05-24T11:56:38.735Z,3.30
2023-05-24T11:59:17.030Z,3.58
2023-05-24T12:01:44.718Z,3.85
2023-05-24T12:04:12.002Z,4.10
2023-05-24T12:06:45.495Z,3.83
2023-05-24T12:09:14.717Z,3.45
2023-05-24T12:11:44.448Z,3.30
2023-05-24T12:14:28.259Z,3.45
2023-05-24T12:16:56.495Z,3.63
2023-05-24T12:19:33.780Z,3.78
2023-05-24T12:22:05.833Z,3.72
2023-05-24T12:24:33.024Z,3.92
2023-05-24T12:27:02.316Z,3.70
2023-05-24T12:29:40.779Z,3.30
2023-05-24T12:32:13.641Z,3.00
2023-05-24T12:37:17.762Z,3.35
2023-05-24T12:39:45.220Z,3.30
2023-05-24T12:42:15.281Z,3.58
2023-05-24T12:44:42.889Z,3.42
2023-05-24T12:47:11.040Z,2.95
2023-05-24T12:49:40.560Z,3.30
2023-05-24T12:52:07.813Z,2.70
2023-05-24T12:54:34.579Z,2.72
2023-05-24T12:57:02.865Z,3.60
2023-05-24T12:59:30.236Z,3.17
2023-05-24T13:01:56.976Z,3.67
2023-05-24T13:04:27.581Z,4.07
2023-05-24T13:06:54.769Z,4.10
2023-05-24T13:09:23.913Z,3.75
2023-05-24T13:11:53.476Z,3.03
2023-05-24T13:14:20.456Z,3.72
2023-05-24T13:16:47.987Z,3.60
2023-05-24T13:19:15.093Z,4.10
2023-05-24T13:21:44.146Z,3.38
2023-05-24T13:24:16.757Z,3.47
2023-05-24T13:26:44.355Z,3.75
2023-05-24T13:31:43.250Z,4.00
2023-05-24T13:34:11.277Z,3.20
2023-05-24T13:36:39.366Z,3.30
2023-05-24T13:41:37.884Z,3.60
2023-05-24T13:44:04.890Z,3.60
2023-05-24T13:46:33.617Z,3.95
2023-05-24T13:49:01.743Z,3.72
2023-05-24T13:51:31.464Z,3.55
2023-05-24T13:54:01.350Z,4.70
2023-05-24T13:56:36.982Z,3.97
2023-05-24T13:59:07.265Z,4.35
2023-05-24T14:01:36.006Z,3.78
2023-05-24T14:04:03.662Z,4.55
2023-05-24T14:06:31.095Z,4.43
2023-05-24T14:08:58.496Z,3.47
2023-05-24T14:11:32.834Z,3.13
2023-05-24T14:19:02.129Z,4.78
2023-05-24T14:21:28.881Z,4.07
2023-05-24T14:23:56.204Z,4.43
2023-05-24T14:26:24.429Z,3.72
2023-05-24T14:28:54.472Z,3.97
2023-05-24T14:31:23.285Z,2.67
2023-05-24T14:33:51.317Z,2.90
2023-05-24T14:36:19.329Z,3.00
2023-05-24T14:38:47.458Z,3.72
2023-05-24T14:41:15.924Z,4.15
2023-05-24T14:43:43.674Z,3.65
2023-05-24T14:46:11.602Z,3.30
2023-05-24T14:48:41.865Z,3.85
2023-05-24T14:51:10.027Z,3.85
2023-05-24T14:53:36.740Z,3.45
2023-05-24T14:56:06.759Z,4.18
2023-05-24T14:58:33.626Z,2.72
2023-05-24T15:01:00.473Z,3.72
2023-05-24T15:03:29.107Z,3.67
2023-05-24T15:05:59.796Z,3.45
2023-05-24T15:08:29.027Z,3.53
2023-05-24T15:10:58.638Z,3.13
2023-05-24T15:13:26.887Z,3.40
2023-05-24T15:15:57.564Z,3.45
2023-05-24T15:18:27.978Z,2.92
2023-05-24T15:20:57.451Z,3.05
2023-05-24T15:23:26.249Z,3.15
2023-05-24T15:25:53.253Z,2.30
2023-05-24T15:28:20.121Z,2.80
2023-05-24T15:30:48.846Z,2.80
2023-05-24T15:33:18.619Z,2.90
2023-05-24T15:35:47.763Z,2.78
2023-05-24T15:38:17.971Z,2.65
2023-05-24T15:40:46.689Z,2.65
2023-05-24T15:43:15.745Z,2.60
2023-05-24T15:45:44.010Z,2.10
2023-05-24T15:48:10.855Z,2.15
2023-05-24T15:50:57.835Z,2.33
2023-05-24T15:53:26.397Z,2.65
2023-05-24T15:55:55.580Z,2.45
2023-05-24T15:58:22.364Z,2.55
2023-05-24T16:00:51.023Z,2.22
2023-05-24T16:03:18.671Z,2.95
2023-05-24T16:05:51.030Z,2.65
2023-05-24T16:08:18.022Z,2.77
2023-05-24T16:10:46.636Z,2.78
2023-05-24T16:13:13.658Z,2.83
2023-05-24T16:15:43.342Z,3.00
2023-05-24T16:18:11.665Z,3.58
2023-05-24T16:20:43.012Z,2.80
2023-05-24T16:23:11.925Z,3.40
2023-05-24T16:25:55.511Z,3.30
2023-05-24T16:28:24.314Z,3.72
2023-05-24T16:30:56.494Z,4.15
2023-05-24T16:33:26.921Z,3.57
2023-05-24T16:35:56.849Z,4.03
2023-05-24T16:38:25.597Z,4.40
2023-05-24T16:40:53.766Z,3.22
2023-05-24T16:43:20.922Z,3.83
2023-05-24T16:45:49.541Z,3.97
2023-05-24T16:48:16.588Z,4.60
2023-05-24T16:50:43.517Z,4.30
2023-05-24T16:53:10.418Z,3.92
2023-05-24T16:55:37.079Z,5.43
2023-05-24T16:58:03.946Z,4.88
2023-05-24T17:00:30.676Z,4.60
2023-05-24T17:02:59.492Z,3.67
2023-05-24T17:05:26.326Z,4.22
2023-05-24T17:07:54.871Z,3.97
2023-05-24T17:10:23.085Z,5.18
2023-05-24T17:12:51.916Z,3.80
2023-05-24T17:15:18.778Z,3.65
2023-05-24T17:17:45.588Z,4.80
2023-05-24T17:20:13.641Z,4.03
2023-05-24T17:22:41.132Z,5.22
2023-05-24T17:25:08.564Z,4.55
2023-05-24T17:27:35.435Z,4.15
2023-05-24T17:30:02.196Z,4.45
2023-05-24T17:32:28.952Z,3.28
2023-05-24T17:34:57.256Z,3.45
2023-05-24T17:37:25.978Z,3.50
2023-05-24T17:39:52.851Z,4.53
2023-05-24T17:42:19.727Z,4.00
2023-05-24T17:44:46.464Z,3.97
2023-05-24T17:47:13.207Z,5.60
2023-05-24T17:49:39.920Z,4.30
2023-05-24T17:52:30.055Z,3.38
2023-05-24T17:54:56.862Z,3.95
2023-05-24T17:57:29.975Z,4.78
2023-05-24T17:59:56.909Z,3.72
2023-05-24T18:02:27.168Z,4.05
2023-05-24T18:05:01.583Z,6.47
2023-05-24T18:07:31.186Z,3.63
2023-05-24T18:10:00.862Z,4.63
2023-05-24T18:12:31.280Z,4.88
2023-05-24T18:14:58.028Z,3.67
2023-05-24T18:17:27.338Z,3.58
2023-05-24T18:19:54.166Z,3.03
2023-05-24T18:22:21.317Z,3.42
2023-05-24T18:24:47.997Z,3.45
2023-05-24T18:27:14.744Z,4.30
2023-05-24T18:29:41.425Z,3.13
2023-05-24T18:32:08.175Z,3.33
2023-05-24T18:34:34.918Z,3.72
2023-05-24T18:37:01.646Z,3.80
2023-05-24T18:39:28.354Z,3.75
2023-05-24T18:41:55.106Z,3.90
2023-05-24T18:44:21.899Z,4.28
2023-05-24T18:46:48.667Z,3.42
2023-05-24T18:49:15.672Z,3.03
2023-05-24T18:51:42.394Z,3.55
2023-05-24T18:54:09.134Z,3.10
2023-05-24T18:56:35.958Z,4.15
2023-05-24T18:59:02.645Z,3.10
2023-05-24T19:01:29.403Z,3.83
2023-05-24T19:03:56.194Z,3.05
2023-05-24T19:06:23.259Z,3.75
2023-05-24T19:08:49.983Z,2.42
2023-05-24T19:11:16.689Z,3.35
2023-05-24T19:13:43.380Z,4.18
2023-05-24T19:16:17.275Z,3.20
2023-05-24T19:18:45.032Z,3.38
2023-05-24T19:21:12.433Z,2.95
2023-05-24T19:23:40.649Z,4.05
2023-05-24T19:26:07.338Z,3.67
2023-05-24T19:28:37.776Z,4.50
2023-05-24T19:31:04.791Z,4.20
2023-05-24T19:33:31.482Z,3.75
2023-05-24T19:35:58.177Z,3.60
2023-05-24T19:38:24.830Z,2.97
2023-05-24T19:40:51.541Z,3.35
2023-05-24T19:43:18.259Z,3.05
2023-05-24T19:45:45.224Z,3.33
2023-05-24T19:48:12.613Z,2.78
2023-05-24T19:50:40.644Z,2.67
2023-05-24T19:53:07.366Z,3.20
2023-05-24T19:55:34.040Z,3.33
2023-05-24T19:58:00.781Z,3.35
2023-05-24T20:00:27.506Z,3.90
2023-05-24T20:02:54.252Z,3.70
2023-05-24T20:05:21.094Z,3.90
2023-05-24T20:07:47.930Z,4.38
2023-05-24T20:10:14.726Z,4.13
2023-05-24T20:12:42.807Z,5.20
2023-05-24T20:15:15.243Z,5.18
2023-05-24T20:17:46.293Z,4.70
2023-05-24T20:20:18.693Z,4.65
2023-05-24T20:22:45.882Z,3.75
2023-05-24T20:25:12.577Z,5.32
2023-05-24T20:27:41.855Z,7.80
2023-05-24T20:30:09.669Z,5.53
2023-05-24T20:32:36.391Z,4.20
2023-05-24T20:35:03.826Z,5.43
2023-05-24T20:37:30.590Z,4.55
2023-05-24T20:39:57.470Z,5.82
2023-05-24T20:42:26.004Z,5.35
2023-05-24T20:44:52.793Z,4.85
2023-05-24T20:47:19.618Z,3.88
2023-05-24T20:49:49.171Z,4.07
2023-05-24T20:52:16.400Z,4.18
2023-05-24T20:54:43.209Z,3.60
2023-05-24T20:57:10.228Z,4.07
2023-05-24T20:59:36.962Z,5.35
2023-05-24T21:02:03.718Z,4.75
2023-05-24T21:04:30.514Z,4.63
2023-05-24T21:06:57.151Z,5.70
2023-05-24T21:09:23.816Z,4.90
2023-05-24T21:11:50.734Z,5.05
2023-05-24T21:14:17.524Z,5.75
2023-05-24T21:16:44.303Z,4.90
2023-05-24T21:19:10.971Z,6.03
2023-05-24T21:21:37.772Z,4.93
2023-05-24T21:24:04.584Z,4.95
2023-05-24T21:26:31.358Z,4.68
2023-05-24T21:28:58.118Z,5.60
2023-05-24T21:31:25.948Z,5.18
2023-05-24T21:33:58.110Z,4.53
2023-05-24T21:36:24.861Z,4.60
2023-05-24T21:38:51.547Z,5.93
2023-05-24T21:41:18.361Z,7.22
2023-05-24T21:43:45.033Z,5.13
2023-05-24T21:46:11.748Z,6.97
2023-05-24T21:48:38.467Z,4.63
2023-05-24T21:51:05.195Z,4.63
2023-05-24T21:53:32.152Z,4.72
2023-05-24T21:55:58.818Z,5.05
2023-05-24T21:58:25.476Z,5.78
2023-05-24T22:00:52.402Z,6.03
2023-05-24T22:03:19.175Z,4.60
2023-05-24T22:05:46.153Z,4.32
2023-05-24T22:08:12.969Z,5.65
2023-05-24T22:10:39.620Z,4.93
2023-05-24T22:13:06.859Z,4.50
2023-05-24T22:15:33.561Z,3.92
2023-05-24T22:18:01.596Z,5.25
2023-05-24T22:20:30.539Z,5.53
2023-05-24T22:22:58.882Z,4.53
2023-05-24T22:25:25.625Z,5.22
2023-05-24T22:27:55.695Z,5.45
2023-05-24T22:30:22.662Z,4.32
2023-05-24T22:32:49.553Z,3.80
2023-05-24T22:35:16.561Z,4.05
2023-05-24T22:37:43.251Z,4.55
2023-05-24T22:40:10.361Z,4.28
2023-05-24T22:42:37.060Z,4.20
2023-05-24T22:45:04.164Z,4.72
2023-05-24T22:47:33.405Z,4.85
2023-05-24T22:50:02.080Z,4.13
2023-05-24T22:52:30.344Z,4.28
2023-05-24T22:54:57.085Z,4.22
2023-05-24T22:57:23.846Z,3.58
2023-05-24T22:59:50.576Z,4.30
2023-05-24T23:02:17.332Z,4.20
2023-05-24T23:04:47.478Z,4.63
2023-05-24T23:07:17.658Z,4.43
2023-05-24T23:09:44.547Z,4.43
2023-05-24T23:12:12.045Z,4.93
2023-05-24T23:14:41.729Z,4.55
2023-05-24T23:17:17.207Z,4.10
2023-05-24T23:19:43.955Z,4.45
2023-05-24T23:22:23.652Z,3.85
2023-05-24T23:24:50.421Z,4.38
2023-05-24T23:27:17.415Z,5.35
2023-05-24T23:29:44.200Z,5.05
2023-05-24T23:32:10.985Z,3.55
2023-05-24T23:34:38.080Z,4.43
2023-05-24T23:37:05.503Z,4.53
2023-05-24T23:39:32.425Z,3.90
2023-05-24T23:41:59.140Z,4.50
2023-05-24T23:44:25.996Z,3.72
2023-05-24T23:46:53.557Z,4.13
2023-05-24T23:49:20.693Z,4.18
2023-05-24T23:51:47.731Z,3.92
2023-05-24T23:54:19.276Z,4.60
2023-05-24T23:56:46.146Z,4.63
2023-05-24T23:59:13.022Z,3.85
